Time;durP1;ratioP1;P1;durP2;ratioP2;P2;SDS_P1;SDS_P2;PMS_P1;PMS_P2;Temp;Humidity;BMP_temperature;BMP_pressure;BME280_temperature;BME280_humidity;BME280_pressure;Samples;Min_cycle;Max_cycle;Signal;HPM_P1;HPM_P2
2023/07/23 00:01:04;;;;;;;22.85;19.73;;;564.10;2432.00;;;;;;5092197;28;20107;-63
2023/07/23 00:03:31;;;;;;;17.35;12.20;;;564.10;2432.00;;;;;;5091292;28;20034;-61
2023/07/23 00:05:57;;;;;;;12.55;10.38;;;564.10;2432.00;;;;;;5090267;28;20512;-66
2023/07/23 00:08:22;;;;;;;10.82;9.60;;;564.10;2432.00;;;;;;5090841;28;20024;-65
2023/07/23 00:10:48;;;;;;;14.63;10.38;;;564.00;2432.00;;;;;;5091488;28;20024;-62
2023/07/23 00:13:14;;;;;;;16.17;11.18;;;563.90;2432.00;;;;;;5089570;28;20040;-61
2023/07/23 00:15:39;;;;;;;11.45;10.32;;;563.90;2432.00;;;;;;5091235;28;20493;-65
2023/07/23 00:18:05;;;;;;;12.20;10.90;;;563.90;2432.00;;;;;;5088013;28;20122;-62
2023/07/23 00:20:31;;;;;;;13.73;11.02;;;563.80;2432.00;;;;;;5091097;28;20024;-62
2023/07/23 00:22:56;;;;;;;12.18;10.95;;;563.60;2432.00;;;;;;5089656;28;20031;-62
2023/07/23 00:25:22;;;;;;;12.52;11.25;;;563.60;2432.00;;;;;;5090516;28;21003;-62
2023/07/23 00:27:48;;;;;;;12.98;10.73;;;563.50;2432.00;;;;;;5090598;28;20074;-63
2023/07/23 00:30:14;;;;;;;12.10;10.27;;;563.50;2432.00;;;;;;5090995;28;20032;-62
2023/07/23 00:32:39;;;;;;;12.30;11.07;;;563.50;2432.00;;;;;;5089585;28;20028;-64
2023/07/23 00:35:06;;;;;;;11.57;10.38;;;563.50;2432.00;;;;;;5090512;28;20416;-64
2023/07/23 00:37:31;;;;;;;13.57;9.55;;;563.50;2432.00;;;;;;5089950;28;20032;-63
2023/07/23 00:39:57;;;;;;;16.17;11.52;;;563.50;2432.00;;;;;;5090556;28;20065;-63
2023/07/23 00:42:23;;;;;;;13.38;11.43;;;563.40;2432.00;;;;;;5090770;28;20136;-64
2023/07/23 00:44:49;;;;;;;13.20;11.85;;;563.40;2432.00;;;;;;5090024;28;20150;-62
2023/07/23 00:47:17;;;;;;;16.45;10.43;;;563.40;2432.00;;;;;;5089895;28;20063;-64
2023/07/23 00:49:43;;;;;;;12.80;10.98;;;563.40;2432.00;;;;;;5090572;28;20055;-63
2023/07/23 00:52:09;;;;;;;13.57;12.02;;;563.30;2432.00;;;;;;5090519;28;20020;-62
2023/07/23 00:54:35;;;;;;;18.65;12.40;;;563.30;2432.00;;;;;;5090287;28;20490;-63
2023/07/23 00:57:04;;;;;;;12.93;11.57;;;563.30;2432.00;;;;;;5090596;28;20116;-64
2023/07/23 00:59:32;;;;;;;12.63;11.40;;;563.40;2432.00;;;;;;5090385;28;20024;-63
2023/07/23 01:01:58;;;;;;;12.02;10.82;;;563.30;2432.00;;;;;;5089138;28;20035;-63
2023/07/23 01:04:25;;;;;;;12.93;11.73;;;563.30;2432.00;;;;;;5089709;28;20028;-64
2023/07/23 01:06:52;;;;;;;12.57;11.25;;;563.30;2432.00;;;;;;5089923;28;20027;-61
2023/07/23 01:09:19;;;;;;;14.65;12.05;;;563.30;2432.00;;;;;;5089390;28;20027;-64
2023/07/23 01:11:45;;;;;;;13.30;11.20;;;563.30;2432.00;;;;;;5089449;28;20052;-63
2023/07/23 01:14:11;;;;;;;12.40;11.07;;;563.20;2432.00;;;;;;5090139;28;20414;-65
2023/07/23 01:16:37;;;;;;;11.80;10.68;;;538.50;2406.40;;;;;;5090300;28;20026;-64
2023/07/23 01:19:03;;;;;;;13.70;11.82;;;538.50;2406.40;;;;;;5090508;28;20024;-64
2023/07/23 01:21:29;;;;;;;13.52;11.30;;;538.50;2406.40;;;;;;5090291;28;20016;-64
2023/07/23 01:23:55;;;;;;;12.75;11.38;;;538.40;2406.40;;;;;;5090003;28;20031;-63
2023/07/23 01:26:21;;;;;;;13.35;11.90;;;538.40;2406.40;;;;;;5089553;28;20052;-64
2023/07/23 01:28:47;;;;;;;16.98;11.95;;;538.40;2406.40;;;;;;5089867;28;20034;-65
2023/07/23 01:31:13;;;;;;;17.30;13.15;;;538.30;2406.40;;;;;;5089600;28;20032;-64
2023/07/23 01:33:40;;;;;;;15.68;13.13;;;538.10;2406.40;;;;;;5090377;28;20024;-63
2023/07/23 01:36:06;;;;;;;13.90;12.50;;;538.00;2406.40;;;;;;5089874;28;20020;-65
2023/07/23 01:38:33;;;;;;;14.52;13.13;;;538.00;2406.40;;;;;;5090110;28;20060;-64
2023/07/23 01:40:58;;;;;;;14.68;13.15;;;538.00;2406.40;;;;;;5089385;28;20374;-64
2023/07/23 01:43:24;;;;;;;17.27;14.60;;;538.00;2406.40;;;;;;5089888;28;20028;-65
2023/07/23 01:45:50;;;;;;;14.43;12.90;;;537.90;2124.80;;;;;;5088810;28;20175;-64
2023/07/23 01:48:17;;;;;;;13.93;12.38;;;538.00;2406.40;;;;;;5088287;28;20044;-63
2023/07/23 01:50:43;;;;;;;14.68;13.25;;;537.90;2406.40;;;;;;5090401;28;20027;-63
2023/07/23 01:53:08;;;;;;;14.55;12.38;;;538.00;2406.40;;;;;;5090204;28;20024;-61
2023/07/23 01:55:34;;;;;;;13.75;12.30;;;538.00;2406.40;;;;;;5090004;28;20108;-62
2023/07/23 01:58:00;;;;;;;17.25;14.43;;;538.00;2406.40;;;;;;5089919;28;20056;-62
2023/07/23 02:00:26;;;;;;;19.80;15.10;;;538.00;2406.40;;;;;;5089821;28;20483;-62
2023/07/23 02:02:53;;;;;;;16.23;14.57;;;538.00;2406.40;;;;;;5090087;28;20486;-62
2023/07/23 02:05:19;;;;;;;14.98;13.48;;;538.00;2406.40;;;;;;5090200;28;20024;-62
2023/07/23 02:07:45;;;;;;;14.05;12.65;;;537.90;2406.40;;;;;;5089695;28;20032;-62
2023/07/23 02:10:14;;;;;;;20.10;13.48;;;537.90;2406.40;;;;;;5090127;28;20051;-64
2023/07/23 02:12:39;;;;;;;15.98;14.32;;;538.00;2406.40;;;;;;5090092;28;20535;-62
2023/07/23 02:15:06;;;;;;;14.93;13.27;;;537.90;2406.40;;;;;;5089558;28;20056;-62
2023/07/23 02:17:31;;;;;;;17.35;13.82;;;537.80;2406.40;;;;;;5089921;28;20039;-62
2023/07/23 02:19:57;;;;;;;17.60;12.65;;;537.80;2406.40;;;;;;5089546;28;20024;-62
2023/07/23 02:22:23;;;;;;;14.43;13.00;;;537.70;2406.40;;;;;;5089758;28;20646;-61
2023/07/23 02:24:49;;;;;;;17.02;14.57;;;537.80;2406.40;;;;;;5089719;28;20095;-63
2023/07/23 02:27:15;;;;;;;19.80;15.30;;;537.60;2406.40;;;;;;5089462;28;20024;-64
2023/07/23 02:29:41;;;;;;;17.75;15.88;;;512.90;2380.80;;;;;;5089831;28;20035;-64
2023/07/23 02:32:09;;;;;;;18.90;15.70;;;512.80;2380.80;;;;;;5089619;28;20486;-63
2023/07/23 02:34:35;;;;;;;22.00;17.35;;;512.90;2380.80;;;;;;5089666;28;20409;-65
2023/07/23 02:37:00;;;;;;;17.77;16.00;;;512.80;2380.80;;;;;;5089348;28;20040;-63
2023/07/23 02:39:26;;;;;;;18.55;16.02;;;512.80;2380.80;;;;;;5089324;28;20020;-63
2023/07/23 02:41:52;;;;;;;19.27;16.75;;;512.70;2380.80;;;;;;5089629;28;20035;-62
2023/07/23 02:44:17;;;;;;;19.02;16.98;;;512.70;2380.80;;;;;;5089003;28;20022;-61
2023/07/23 02:46:43;;;;;;;22.45;17.90;;;512.80;2380.80;;;;;;5089356;28;20012;-62
2023/07/23 02:49:09;;;;;;;17.65;15.85;;;512.70;2380.80;;;;;;5089471;28;20035;-61
2023/07/23 02:51:34;;;;;;;17.75;15.95;;;512.70;2380.80;;;;;;5089111;28;20024;-62
2023/07/23 02:54:00;;;;;;;17.90;16.15;;;512.60;2380.80;;;;;;5089288;28;20073;-61
2023/07/23 02:56:26;;;;;;;17.20;15.38;;;512.90;1996.80;;;;;;5088964;28;20028;-61
2023/07/23 02:58:52;;;;;;;17.42;15.73;;;537.70;2406.40;;;;;;5089172;28;20177;-61
2023/07/23 03:01:19;;;;;;;17.70;13.93;;;537.80;2406.40;;;;;;5088958;28;20028;-61
2023/07/23 03:03:47;;;;;;;15.27;13.77;;;537.90;2406.40;;;;;;5088921;28;20032;-61
2023/07/23 03:06:16;;;;;;;16.45;14.27;;;537.90;2406.40;;;;;;5089074;28;20055;-61
2023/07/23 03:08:42;;;;;;;18.05;15.48;;;537.90;2406.40;;;;;;5089132;28;20028;-61
2023/07/23 03:11:08;;;;;;;15.77;14.10;;;538.00;2406.40;;;;;;5089008;28;20043;-64
2023/07/23 03:13:34;;;;;;;19.75;17.20;;;538.00;2406.40;;;;;;5088981;28;20064;-62
2023/07/23 03:16:00;;;;;;;18.92;15.63;;;537.90;2406.40;;;;;;5081142;28;20032;-62
2023/07/23 03:18:28;;;;;;;20.73;18.27;;;537.90;2406.40;;;;;;5076468;28;20448;-61
2023/07/23 03:20:54;;;;;;;21.10;18.90;;;537.90;2406.40;;;;;;5077465;28;20078;-62
2023/07/23 03:23:20;;;;;;;19.45;17.35;;;538.00;2406.40;;;;;;5070823;28;20028;-62
2023/07/23 03:25:45;;;;;;;20.13;17.85;;;538.00;2406.40;;;;;;5085709;28;20054;-61
2023/07/23 03:28:12;;;;;;;20.00;17.40;;;538.00;2406.40;;;;;;5080414;28;20028;-60
2023/07/23 03:30:37;;;;;;;21.52;18.45;;;538.10;2406.40;;;;;;5078545;28;20035;-62
2023/07/23 03:33:03;;;;;;;19.83;17.65;;;538.10;2406.40;;;;;;5081505;28;20191;-61
2023/07/23 03:35:29;;;;;;;21.58;18.42;;;538.10;2406.40;;;;;;5085758;28;20685;-63
2023/07/23 03:37:54;;;;;;;22.25;18.65;;;538.10;2406.40;;;;;;5075761;28;20106;-62
2023/07/23 03:40:20;;;;;;;18.45;16.25;;;538.10;2406.40;;;;;;5076526;28;20024;-60
2023/07/23 03:42:46;;;;;;;23.00;19.13;;;538.10;2406.40;;;;;;5081448;28;20475;-63
2023/07/23 03:45:12;;;;;;;23.30;20.40;;;538.30;2406.40;;;;;;5086116;28;20012;-62
2023/07/23 03:47:37;;;;;;;25.52;21.23;;;538.30;2406.40;;;;;;5082848;28;20084;-63
2023/07/23 03:50:04;;;;;;;26.40;21.80;;;538.40;2406.40;;;;;;5079771;28;20024;-61
2023/07/23 03:52:29;;;;;;;25.15;21.30;;;538.40;2406.40;;;;;;5080159;28;20017;-62
2023/07/23 03:54:55;;;;;;;25.70;20.95;;;538.50;2406.40;;;;;;5085859;28;20024;-62
2023/07/23 03:57:21;;;;;;;25.60;22.17;;;538.40;2406.40;;;;;;5080191;28;20036;-62
2023/07/23 03:59:47;;;;;;;24.50;20.98;;;538.40;2406.40;;;;;;5078052;28;20029;-61
2023/07/23 04:02:13;;;;;;;27.02;21.55;;;538.50;2406.40;;;;;;5083522;28;20120;-61
2023/07/23 04:04:39;;;;;;;28.85;20.98;;;563.20;2432.00;;;;;;5079774;28;20103;-61
2023/07/23 04:07:07;;;;;;;26.75;21.15;;;563.20;2432.00;;;;;;5081728;28;20030;-62
2023/07/23 04:09:33;;;;;;;23.33;20.50;;;563.30;2432.00;;;;;;5076689;28;20043;-61
2023/07/23 04:11:59;;;;;;;22.55;17.63;;;563.20;2432.00;;;;;;5080861;28;20020;-64
2023/07/23 04:14:26;;;;;;;20.98;17.90;;;563.20;2432.00;;;;;;5073221;28;20028;-62
2023/07/23 04:16:54;;;;;;;22.27;18.48;;;538.50;2406.40;;;;;;5083145;28;20390;-63
2023/07/23 04:19:20;;;;;;;19.80;16.85;;;538.50;2406.40;;;;;;5075345;28;20036;-62
2023/07/23 04:21:46;;;;;;;21.48;17.10;;;538.50;2406.40;;;;;;5075434;28;20029;-61
2023/07/23 04:24:12;;;;;;;20.17;17.05;;;538.50;2406.40;;;;;;5077287;28;20390;-66
2023/07/23 04:26:38;;;;;;;21.48;18.17;;;538.50;2406.40;;;;;;5082218;28;20020;-65
2023/07/23 04:29:03;;;;;;;23.15;19.95;;;538.50;2406.40;;;;;;5081950;28;20359;-67
2023/07/23 04:31:31;;;;;;;23.73;20.02;;;563.20;2432.00;;;;;;5085200;28;20439;-66
2023/07/23 04:33:57;;;;;;;23.15;20.05;;;563.30;2432.00;;;;;;5079345;28;20031;-66
2023/07/23 04:36:23;;;;;;;22.98;18.55;;;563.30;2432.00;;;;;;5082045;28;20468;-65
2023/07/23 04:38:49;;;;;;;18.77;15.88;;;563.40;2432.00;;;;;;5076298;28;20050;-61
2023/07/23 04:41:15;;;;;;;19.70;16.63;;;563.40;2432.00;;;;;;5082304;28;20111;-61
2023/07/23 04:43:41;;;;;;;17.50;15.85;;;563.40;2432.00;;;;;;5080119;28;20188;-62
2023/07/23 04:46:07;;;;;;;16.30;14.52;;;563.40;2432.00;;;;;;5082656;28;20020;-63
2023/07/23 04:48:34;;;;;;;17.30;14.23;;;563.40;2432.00;;;;;;5080270;28;20079;-61
2023/07/23 04:51:02;;;;;;;16.30;14.45;;;563.40;2432.00;;;;;;5083494;28;20051;-62
2023/07/23 04:53:28;;;;;;;15.13;13.63;;;563.60;2432.00;;;;;;5077015;28;20032;-62
2023/07/23 04:55:55;;;;;;;16.35;14.65;;;563.60;2432.00;;;;;;5081376;28;20043;-63
2023/07/23 04:58:22;;;;;;;15.57;13.57;;;563.60;2432.00;;;;;;5079050;28;20832;-61
2023/07/23 05:00:48;;;;;;;17.02;14.05;;;563.70;2432.00;;;;;;5079329;28;20024;-62
2023/07/23 05:03:14;;;;;;;14.52;13.02;;;563.70;2432.00;;;;;;5077355;28;20036;-63
2023/07/23 05:05:45;;;;;;;16.10;12.90;;;563.80;2432.00;;;;;;5078972;28;20425;-60
2023/07/23 05:08:11;;;;;;;16.75;15.05;;;564.00;2432.00;;;;;;5079824;28;20032;-62
2023/07/23 05:10:38;;;;;;;18.13;14.50;;;564.10;2432.00;;;;;;5081410;28;20393;-63
2023/07/23 05:13:04;;;;;;;16.00;14.15;;;564.10;2432.00;;;;;;5077067;28;20043;-61
2023/07/23 05:15:30;;;;;;;17.73;13.57;;;588.90;2432.00;;;;;;5082438;28;20024;-63
2023/07/23 05:17:56;;;;;;;17.52;14.82;;;;;;;;;;5080484;28;20076;-63
2023/07/23 05:20:21;;;;;;;16.58;14.88;;;589.10;2432.00;;;;;;5072468;28;20024;-62
2023/07/23 05:22:47;;;;;;;16.15;14.60;;;614.70;2432.00;;;;;;5072636;28;20032;-62
2023/07/23 05:25:13;;;;;;;15.23;12.88;;;614.80;2432.00;;;;;;5080919;28;20492;-62
2023/07/23 05:27:39;;;;;;;15.48;13.88;;;614.50;2432.00;;;;;;5084140;28;20031;-61
2023/07/23 05:30:05;;;;;;;16.77;14.50;;;614.40;2432.00;;;;;;5082720;28;20524;-63
2023/07/23 05:32:32;;;;;;;17.13;14.55;;;614.50;2432.00;;;;;;5079273;28;20386;-62
2023/07/23 05:34:58;;;;;;;15.75;14.25;;;614.60;2432.00;;;;;;5075044;28;20066;-64
2023/07/23 05:37:24;;;;;;;15.93;14.18;;;615.00;2432.00;;;;;;5082689;28;20098;-63
2023/07/23 05:39:52;;;;;;;17.95;13.35;;;640.10;2432.00;;;;;;5073466;28;20031;-62
2023/07/23 05:42:18;;;;;;;15.65;13.52;;;640.60;2432.00;;;;;;5074398;28;20538;-63
2023/07/23 05:44:43;;;;;;;17.48;15.68;;;665.60;2432.00;;;;;;5083271;28;20397;-63
2023/07/23 05:47:09;;;;;;;17.55;15.57;;;665.90;2432.00;;;;;;5078240;28;20047;-64
2023/07/23 05:49:35;;;;;;;17.88;15.88;;;666.10;2432.00;;;;;;5076581;28;20021;-62
2023/07/23 05:52:01;;;;;;;18.02;16.13;;;691.30;2432.00;;;;;;5082986;28;20031;-61
2023/07/23 05:54:26;;;;;;;17.80;15.90;;;691.70;2432.00;;;;;;5077950;28;20024;-63
2023/07/23 05:56:52;;;;;;;19.33;17.30;;;691.20;2432.00;;;;;;5073043;28;20043;-61
2023/07/23 05:59:18;;;;;;;20.42;17.52;;;666.00;2432.00;;;;;;5074842;28;20040;-63
2023/07/23 06:01:44;;;;;;;20.40;18.05;;;640.70;2432.00;;;;;;5074739;28;20467;-63
2023/07/23 06:04:10;;;;;;;18.92;17.02;;;640.40;2432.00;;;;;;5079105;28;20439;-63
2023/07/23 06:06:36;;;;;;;19.13;17.17;;;640.30;2432.00;;;;;;5072633;28;20103;-65
2023/07/23 06:09:03;;;;;;;18.98;17.08;;;640.10;2432.00;;;;;;5072873;28;20129;-61
2023/07/23 06:11:29;;;;;;;18.20;16.40;;;640.00;2432.00;;;;;;5079403;28;20766;-61
2023/07/23 06:13:55;;;;;;;18.73;16.75;;;640.10;2432.00;;;;;;5074079;28;20391;-61
2023/07/23 06:16:21;;;;;;;21.02;16.58;;;640.30;2432.00;;;;;;5079815;28;20028;-61
2023/07/23 06:18:47;;;;;;;18.55;16.55;;;640.50;2432.00;;;;;;5072814;28;20029;-61
2023/07/23 06:21:12;;;;;;;18.77;16.88;;;640.60;2432.00;;;;;;5078288;28;20032;-60
2023/07/23 06:23:38;;;;;;;18.00;16.10;;;640.70;2432.00;;;;;;5078519;28;20032;-61
2023/07/23 06:26:04;;;;;;;18.70;15.65;;;717.60;2432.00;;;;;;5075417;28;20379;-64
2023/07/23 06:28:31;;;;;;;18.15;16.27;;;742.40;2432.00;;;;;;5077538;28;20028;-64
2023/07/23 06:30:58;;;;;;;18.40;16.50;;;717.60;2432.00;;;;;;5080209;28;20170;-64
2023/07/23 06:33:23;;;;;;;17.75;15.80;;;742.40;2432.00;;;;;;5075358;28;20063;-65
2023/07/23 06:35:49;;;;;;;15.20;13.75;;;768.10;2432.00;;;;;;5078630;28;20121;-64
2023/07/23 06:38:15;;;;;;;16.42;14.77;;;768.50;2380.80;;;;;;5072269;28;20111;-65
2023/07/23 06:40:48;;;;;;;15.52;13.93;;;768.00;2380.80;;;;;;5074554;28;20024;-65
2023/07/23 06:43:16;;;;;;;17.65;15.95;;;768.30;2406.40;;;;;;5073075;28;20032;-64
2023/07/23 06:45:43;;;;;;;17.75;15.00;;;819.20;2252.80;;;;;;5080884;28;20024;-64
2023/07/23 06:48:09;;;;;;;18.13;16.38;;;794.50;2252.80;;;;;;5078056;28;20040;-64
2023/07/23 06:50:35;;;;;;;17.38;15.77;;;845.70;2073.60;;;;;;5075718;28;20382;-65
2023/07/23 06:53:01;;;;;;;16.15;14.55;;;870.70;2022.40;;;;;;5077835;28;20060;-65
2023/07/23 06:55:26;;;;;;;15.88;14.27;;;870.70;1996.80;;;;;;5077218;28;20016;-64
2023/07/23 06:57:52;;;;;;;14.77;13.38;;;870.90;1971.20;;;;;;5076406;28;20032;-66
2023/07/23 07:00:18;;;;;;;15.55;14.13;;;870.60;1920.00;;;;;;5078818;28;20115;-66
2023/07/23 07:02:44;;;;;;;16.27;14.68;;;870.60;1945.60;;;;;;5073059;28;20573;-66
2023/07/23 07:05:10;;;;;;;16.27;14.88;;;896.50;1792.00;;;;;;5073008;28;20375;-64
2023/07/23 07:07:37;;;;;;;17.27;15.57;;;922.30;1740.80;;;;;;5070980;28;20036;-64
2023/07/23 07:10:04;;;;;;;18.33;16.83;;;947.30;1715.20;;;;;;5074695;28;20506;-65
2023/07/23 07:12:30;;;;;;;17.95;16.35;;;922.20;1740.80;;;;;;5073298;28;20036;-67
2023/07/23 07:14:56;;;;;;;16.55;15.13;;;999.30;1587.20;;;;;;5068058;28;20094;-65
2023/07/23 07:17:21;;;;;;;17.88;16.38;;;1049.70;1510.40;;;;;;5073099;28;20072;-63
2023/07/23 07:19:47;;;;;;;19.15;17.67;;;1050.20;1459.20;;;;;;5072312;28;20059;-66
2023/07/23 07:22:13;;;;;;;17.70;16.27;;;1049.60;1484.80;;;;;;5074760;28;20532;-63
2023/07/23 07:24:39;;;;;;;19.05;17.55;;;;;;;;;;5079048;28;20016;-70
2023/07/23 07:27:09;;;;;;;19.48;17.88;;;;;;;;;;5077576;28;20525;-67
2023/07/23 07:29:38;;;;;;;18.65;17.13;;;999.10;1510.40;;;;;;5078040;28;20028;-66
2023/07/23 07:32:06;;;;;;;18.17;16.65;;;948.10;1587.20;;;;;;5075279;28;20048;-67
2023/07/23 07:34:31;;;;;;;19.60;18.00;;;947.20;1638.40;;;;;;5082064;28;20112;-67
2023/07/23 07:36:57;;;;;;;20.27;18.38;;;871.20;1766.40;;;;;;5069912;28;20167;-66
2023/07/23 07:39:23;;;;;;;20.50;18.40;;;871.20;1766.40;;;;;;5072606;28;20032;-66
2023/07/23 07:41:49;;;;;;;20.10;18.38;;;;;;;;;;5072973;28;20029;-68
2023/07/23 07:44:14;;;;;;;20.98;19.08;;;845.40;1817.60;;;;;;5078659;28;20028;-66
2023/07/23 07:46:40;;;;;;;21.02;19.13;;;844.90;1894.40;;;;;;5080143;28;20571;-66
2023/07/23 07:49:06;;;;;;;20.02;18.40;;;820.10;1894.40;;;;;;5071396;28;20020;-66
2023/07/23 07:51:32;;;;;;;20.48;18.70;;;896.00;1740.80;;;;;;5070927;28;20031;-64
2023/07/23 07:53:57;;;;;;;19.70;17.90;;;871.20;1766.40;;;;;;5071024;28;20078;-66
2023/07/23 07:56:23;;;;;;;21.80;19.90;;;870.70;1792.00;;;;;;5072258;28;20366;-66
2023/07/23 07:58:49;;;;;;;21.48;19.70;;;870.90;1766.40;;;;;;5081079;28;20622;-65
2023/07/23 08:01:15;;;;;;;22.75;20.50;;;896.90;1689.60;;;;;;5074858;28;20062;-65
2023/07/23 08:03:42;;;;;;;21.35;19.48;;;973.40;1561.60;;;;;;5078176;28;20494;-65
2023/07/23 08:06:10;;;;;;;21.13;19.38;;;1024.30;1484.80;;;;;;5077228;28;20062;-66
2023/07/23 08:08:37;;;;;;;21.33;19.63;;;999.30;1510.40;;;;;;5075569;28;20028;-66
2023/07/23 08:11:04;;;;;;;21.77;19.88;;;998.50;1561.60;;;;;;5079594;28;20024;-64
2023/07/23 08:13:31;;;;;;;23.08;21.15;;;999.10;1510.40;;;;;;5081174;28;20468;-69
2023/07/23 08:15:57;;;;;;;20.98;19.25;;;1050.40;1433.60;;;;;;5072718;28;20034;-66
2023/07/23 08:18:24;;;;;;;22.95;21.15;;;1050.00;1459.20;;;;;;5081883;28;20036;-65
2023/07/23 08:20:50;;;;;;;22.50;20.70;;;1024.90;1459.20;;;;;;5079097;28;20021;-66
2023/07/23 08:23:16;;;;;;;22.98;20.92;;;1024.90;1433.60;;;;;;5081168;28;20016;-65
2023/07/23 08:25:46;;;;;;;25.02;23.05;;;999.20;1510.40;;;;;;5074829;28;20093;-66
2023/07/23 08:28:19;;;;;;;24.88;22.80;;;948.10;1536.00;;;;;;5072878;28;20467;-65
2023/07/23 08:30:45;;;;;;;25.33;23.20;;;922.40;1612.80;;;;;;5077332;28;20037;-66
2023/07/23 08:33:11;;;;;;;23.67;21.52;;;896.70;1689.60;;;;;;5082337;28;20031;-64
2023/07/23 08:35:37;;;;;;;20.90;19.00;;;870.80;1766.40;;;;;;5082922;28;20043;-63
2023/07/23 08:38:02;;;;;;;21.63;19.50;;;820.10;1843.20;;;;;;5080938;28;20033;-62
2023/07/23 08:40:29;;;;;;;21.60;19.60;;;844.80;1843.20;;;;;;5073581;28;20020;-63
2023/07/23 08:42:55;;;;;;;22.83;17.48;;;845.20;1817.60;;;;;;5082366;28;20466;-62
2023/07/23 08:45:30;;;;;;;22.52;20.60;;;820.10;1843.20;;;;;;5087502;28;20058;-63
2023/07/23 08:48:18;;;;;;;20.63;18.73;;;819.40;1894.40;;;;;;5075551;28;20044;-62
2023/07/23 08:50:47;;;;;;;21.27;19.38;;;794.20;1920.00;;;;;;5077937;28;20241;-62
2023/07/23 08:53:14;;;;;;;24.08;21.88;;;793.90;1971.20;;;;;;5082231;28;20039;-64
2023/07/23 08:55:43;;;;;;;21.85;19.75;;;793.70;1996.80;;;;;;5074331;28;20027;-61
2023/07/23 08:58:18;;;;;;;20.98;19.20;;;794.00;1996.80;;;;;;5072806;28;20035;-60
2023/07/23 09:00:46;;;;;;;21.98;20.02;;;793.70;1996.80;;;;;;5080493;28;20607;-61
2023/07/23 09:03:14;;;;;;;22.40;20.30;;;793.90;1971.20;;;;;;5076962;28;20069;-61
2023/07/23 09:05:40;;;;;;;19.52;17.67;;;794.30;1996.80;;;;;;5085056;28;20025;-61
2023/07/23 09:08:07;;;;;;;20.75;18.85;;;793.90;1945.60;;;;;;5081366;28;20023;-61
2023/07/23 09:10:33;;;;;;;22.38;20.27;;;794.20;1971.20;;;;;;5077223;28;20037;-62
2023/07/23 09:13:07;;;;;;;22.33;20.30;;;794.00;1971.20;;;;;;5083481;28;20024;-60
2023/07/23 09:15:33;;;;;;;21.05;19.05;;;794.40;1971.20;;;;;;5083049;28;20089;-59
2023/07/23 09:17:59;;;;;;;20.13;18.27;;;794.20;1996.80;;;;;;5084393;28;20666;-60
2023/07/23 09:20:25;;;;;;;20.02;17.95;;;794.10;1971.20;;;;;;5080758;28;20036;-61
2023/07/23 09:22:51;;;;;;;18.63;16.92;;;793.70;1971.20;;;;;;5079448;28;20025;-61
2023/07/23 09:25:18;;;;;;;19.67;17.98;;;793.90;1971.20;;;;;;5086375;28;20020;-67
2023/07/23 09:27:44;;;;;;;16.63;15.02;;;793.90;1971.20;;;;;;5074562;28;20160;-60
2023/07/23 09:30:19;;;;;;;19.58;17.75;;;793.70;1996.80;;;;;;5079207;28;20529;-60
2023/07/23 09:32:59;;;;;;;17.42;15.93;;;793.90;1996.80;;;;;;5084211;28;20374;-59
2023/07/23 09:35:28;;;;;;;16.10;14.57;;;794.00;1971.20;;;;;;5078445;28;20058;-59
2023/07/23 09:38:00;;;;;;;18.30;16.63;;;793.90;1945.60;;;;;;5078194;28;20059;-60
2023/07/23 09:40:35;;;;;;;19.40;17.70;;;794.10;1996.80;;;;;;5082587;28;20039;-61
2023/07/23 09:43:01;;;;;;;16.88;15.38;;;794.20;1996.80;;;;;;5080208;28;20062;-61
2023/07/23 09:45:34;;;;;;;16.27;14.75;;;794.00;1945.60;;;;;;5076109;28;20056;-61
2023/07/23 09:48:02;;;;;;;17.42;15.63;;;793.60;1945.60;;;;;;5080031;28;20049;-65
2023/07/23 09:50:27;;;;;;;18.88;17.25;;;768.00;2022.40;;;;;;5077915;28;20020;-61
2023/07/23 09:52:53;;;;;;;19.00;17.20;;;768.70;1996.80;;;;;;5077668;28;20807;-61
2023/07/23 09:55:20;;;;;;;17.65;16.02;;;793.70;2022.40;;;;;;5080373;28;20092;-65
2023/07/23 09:57:51;;;;;;;17.20;15.65;;;768.40;1996.80;;;;;;5079125;28;20041;-60
2023/07/23 10:00:18;;;;;;;18.58;16.77;;;768.70;1996.80;;;;;;5074756;28;20036;-61
2023/07/23 10:02:48;;;;;;;17.02;15.52;;;768.50;1996.80;;;;;;5082598;28;20573;-61
2023/07/23 10:05:17;;;;;;;17.98;16.13;;;768.10;2022.40;;;;;;5072785;28;20081;-59
2023/07/23 10:07:46;;;;;;;17.40;15.70;;;768.10;1996.80;;;;;;5074363;28;20024;-60
2023/07/23 10:10:15;;;;;;;17.35;15.75;;;768.40;1996.80;;;;;;5078438;28;20020;-58
2023/07/23 10:12:41;;;;;;;20.58;15.93;;;768.40;1996.80;;;;;;5075387;28;20036;-59
2023/07/23 10:15:08;;;;;;;18.45;16.75;;;768.70;2022.40;;;;;;5072157;28;20395;-61
2023/07/23 10:17:48;;;;;;;17.70;15.93;;;768.60;1996.80;;;;;;5080421;28;20029;-67
2023/07/23 10:20:15;;;;;;;16.15;14.73;;;768.30;2048.00;;;;;;5075466;28;20024;-60
2023/07/23 10:22:45;;;;;;;17.30;15.73;;;768.90;1971.20;;;;;;5072316;28;20029;-63
2023/07/23 10:25:32;;;;;;;16.67;15.18;;;793.60;1996.80;;;;;;5077583;28;20056;-60
2023/07/23 10:28:06;;;;;;;16.73;14.95;;;794.20;1971.20;;;;;;5071677;28;20024;-60
2023/07/23 10:30:33;;;;;;;16.88;14.60;;;793.70;1971.20;;;;;;5075513;28;20036;-66
2023/07/23 10:33:11;;;;;;;16.60;15.10;;;793.70;1971.20;;;;;;5083081;28;20078;-60
2023/07/23 10:35:52;;;;;;;17.63;15.30;;;794.40;1920.00;;;;;;5079815;28;20025;-60
2023/07/23 10:38:31;;;;;;;16.17;14.57;;;794.20;1945.60;;;;;;5082621;28;20033;-60
2023/07/23 10:40:57;;;;;;;15.10;13.57;;;794.20;1945.60;;;;;;5079610;28;20028;-59
2023/07/23 10:43:24;;;;;;;15.98;14.38;;;794.20;1945.60;;;;;;5081007;28;20031;-60
2023/07/23 10:46:07;;;;;;;14.45;12.95;;;819.50;1945.60;;;;;;5080267;28;20044;-60
2023/07/23 10:48:44;;;;;;;14.70;13.20;;;794.50;1920.00;;;;;;5076854;28;20120;-60
2023/07/23 10:51:14;;;;;;;15.35;13.85;;;794.20;1920.00;;;;;;5078686;28;20044;-60
2023/07/23 10:54:05;;;;;;;14.82;13.32;;;794.40;1945.60;;;;;;5073367;28;20036;-60
2023/07/23 10:56:35;;;;;;;13.95;12.43;;;819.20;1945.60;;;;;;5075849;28;20033;-60
2023/07/23 10:59:09;;;;;;;14.55;12.90;;;794.50;1920.00;;;;;;5076798;28;20475;-61
2023/07/23 11:01:40;;;;;;;13.32;11.88;;;793.90;1945.60;;;;;;5072121;28;20048;-61
2023/07/23 11:04:17;;;;;;;14.32;12.90;;;794.50;1971.20;;;;;;5072824;28;20021;-61
2023/07/23 11:07:04;;;;;;;14.45;13.05;;;794.00;1894.40;;;;;;5079924;28;20020;-63
2023/07/23 11:09:34;;;;;;;15.85;14.18;;;793.70;1920.00;;;;;;5071828;28;20103;-62
2023/07/23 11:12:03;;;;;;;14.00;12.60;;;793.90;1945.60;;;;;;5069905;28;20103;-60
2023/07/23 11:14:30;;;;;;;13.80;12.50;;;794.00;1945.60;;;;;;5077443;28;20104;-66
2023/07/23 11:17:02;;;;;;;14.20;12.80;;;794.10;1920.00;;;;;;5079334;28;20550;-61
2023/07/23 11:19:29;;;;;;;13.63;12.23;;;768.90;1920.00;;;;;;5071737;28;20082;-60
2023/07/23 11:21:57;;;;;;;13.48;12.05;;;794.20;1920.00;;;;;;5072902;28;20429;-60
2023/07/23 11:24:27;;;;;;;17.08;12.25;;;794.20;1920.00;;;;;;5074482;28;20103;-62
2023/07/23 11:26:57;;;;;;;14.43;12.32;;;794.00;1945.60;;;;;;5076719;28;20029;-59
2023/07/23 11:29:24;;;;;;;13.70;12.40;;;794.10;1945.60;;;;;;5078597;28;20043;-61
2023/07/23 11:31:54;;;;;;;13.13;11.77;;;768.90;1945.60;;;;;;5078261;28;20045;-61
2023/07/23 11:34:21;;;;;;;14.70;11.98;;;794.00;1945.60;;;;;;5081791;28;20039;-58
2023/07/23 11:36:52;;;;;;;13.63;12.32;;;794.20;2022.40;;;;;;5076124;28;20520;-58
2023/07/23 11:39:19;;;;;;;13.65;12.30;;;819.20;1945.60;;;;;;5076881;28;20586;-58
2023/07/23 11:41:45;;;;;;;13.57;12.27;;;819.20;1920.00;;;;;;5075505;28;20033;-60
2023/07/23 11:44:11;;;;;;;13.52;12.30;;;794.00;1945.60;;;;;;5082282;28;20369;-57
2023/07/23 11:46:40;;;;;;;13.35;12.05;;;793.90;1971.20;;;;;;5074443;28;20020;-61
2023/07/23 11:49:11;;;;;;;14.38;13.02;;;794.00;1996.80;;;;;;5080593;28;20036;-60
2023/07/23 11:51:38;;;;;;;15.25;13.75;;;794.00;1971.20;;;;;;5079821;28;20103;-60
2023/07/23 11:54:10;;;;;;;14.25;12.85;;;793.60;1971.20;;;;;;5080582;28;20915;-60
2023/07/23 11:56:38;;;;;;;14.50;13.10;;;793.70;1996.80;;;;;;5079442;28;20466;-60
2023/07/23 11:59:08;;;;;;;13.55;12.15;;;793.70;1996.80;;;;;;5085177;28;20050;-58
2023/07/23 12:01:38;;;;;;;13.05;11.70;;;794.00;1945.60;;;;;;5078247;28;20097;-57